LOWI - LXGB

Guest
Details From LOWI - Innsbruck Kranebitten
To LXGB - Gibraltar
Flight Number -
Tags Generated
Created
Modified
Stats Distance 1,007 nm / 1,865 km
Max Altitude 0 ft / 0 m
Waypoints 6
Social Downloads 5
Likes 0
Share VATSIM

Download

Looking for another format? Having issues loading an existing format? Contact us
Advertisement - Login to hide

Notes

Generated

Route

LOWI TOSMI POBIL VAB BRIKE LXGB

ID Type Via Altitude Latitude Longitude Leg Dist Tot Dist Heading (true) Name
O LOWI APT - 0 ft / 0 m 47.25883˚ 11.33091˚ - 0 nm - -
TOSMI FIX - 0 ft / 0 m 44.99389˚ 6.98222˚ 226 nm 226 nm 235° / 232° -
POBIL FIX - 0 ft / 0 m 41.75967˚ 1.82061˚ 297 nm 523 nm 231° / 227° -
VAB VOR - 0 ft / 0 m 38.94381˚ -2.00267˚ 243 nm 767 nm 227° / 225° ALBACETE VOR-DME
BRIKE FIX - 0 ft / 0 m 36.50478˚ -5.41645˚ 218 nm 985 nm 229° / 227° -
O LXGB APT - 0 ft / 0 m 36.15080˚ -5.35977˚ 21 nm 1006 nm 173° / 173° -

Altitude Profile

Weather

Temperature
Clouds and Precipitation
Forecast for 2016-12-03 06:00 UTC. Updated an hour ago
Winds

LOWI

Details ICAO LOWI (INN)
Name Innsbruck Kranebitten
Region Austria
Timezone Europe/Vienna (UTC+1.0)
Stats Elevation 1,906 ft / 581 m (AMSL)
Location 47.260226° 11.343967°
Runways 1
Magnetic Variation 2.896° E

METAR

LOWI 030150Z AUTO VRB02KT 9999 NCD M05/M06 Q1021

Decode

TAF

TAF LOWI 022315Z 0300/0324 27004KT CAVOK TX08/0313Z TNM05/0305Z

Decode

Departure Runways

ID Width Length Bearing (true) Bearing (mag) Surface Threshold Offset Overrun Length
08 148 ft / 45 m 6,545 ft / 1,995 m 81.02° 78.12° Asphalt 338 ft / 103 m 0 ft / 0 m
26 148 ft / 45 m 6,545 ft / 1,995 m 261.04° 258.14° Asphalt 0 ft / 0 m 0 ft / 0 m

LXGB

Details ICAO LXGB (GIB)
Name Gibraltar
Region Gibralter
Timezone Europe/Gibraltar (UTC+1.0)
Stats Elevation 15 ft / 5 m (AMSL)
Location 36.151209° -5.349664°
Runways 1
Magnetic Variation 1.240° W

METAR

LXGB 030150Z AUTO 10011KT 9999 // FEW004/// BKN026/// 15/15 Q1013

Decode

TAF

Not found

Destination Runways

ID Width Length Bearing (true) Bearing (mag) Surface Threshold Offset Overrun Length
27 151 ft / 46 m 5,992 ft / 1,826 m 267.56° 268.80° Asphalt 367 ft / 112 m 89 ft / 27 m
9 151 ft / 46 m 5,992 ft / 1,826 m 87.54° 88.78° Asphalt 299 ft / 91 m 52 ft / 16 m

Popular Alternatives